sensor_id;sensor_type;location;lat;lon;timestamp;pressure;altitude;pressure_sealevel;temperature;humidity
27429;BME280;14881;48.092;11.574;2023-07-08T00:01:25;95668.38;;;13.33;100.00
27429;BME280;14881;48.092;11.574;2023-07-08T00:03:52;95665.94;;;13.31;100.00
27429;BME280;14881;48.092;11.574;2023-07-08T00:06:21;95666.75;;;13.32;100.00
27429;BME280;14881;48.092;11.574;2023-07-08T00:08:48;95662.41;;;13.31;100.00
27429;BME280;14881;48.092;11.574;2023-07-08T00:11:18;95665.22;;;13.26;100.00
27429;BME280;14881;48.092;11.574;2023-07-08T00:13:44;95656.59;;;13.18;100.00
27429;BME280;14881;48.092;11.574;2023-07-08T00:16:12;95667.41;;;13.10;100.00
27429;BME280;14881;48.092;11.574;2023-07-08T00:18:39;95654.34;;;13.07;100.00
27429;BME280;14881;48.092;11.574;2023-07-08T00:21:09;95653.25;;;13.08;100.00
27429;BME280;14881;48.092;11.574;2023-07-08T00:23:36;95654.56;;;13.10;100.00
27429;BME280;14881;48.092;11.574;2023-07-08T00:26:07;95658.81;;;13.16;100.00
27429;BME280;14881;48.092;11.574;2023-07-08T00:28:35;95666.41;;;13.19;100.00
27429;BME280;14881;48.092;11.574;2023-07-08T00:31:01;95655.50;;;13.19;100.00
27429;BME280;14881;48.092;11.574;2023-07-08T00:33:28;95651.06;;;13.23;100.00
27429;BME280;14881;48.092;11.574;2023-07-08T00:36:00;95650.47;;;13.27;100.00
27429;BME280;14881;48.092;11.574;2023-07-08T00:38:32;95650.56;;;13.21;100.00
27429;BME280;14881;48.092;11.574;2023-07-08T00:41:06;95646.50;;;13.19;100.00
27429;BME280;14881;48.092;11.574;2023-07-08T00:43:37;95649.53;;;13.17;100.00
27429;BME280;14881;48.092;11.574;2023-07-08T00:46:16;95644.41;;;13.16;100.00
27429;BME280;14881;48.092;11.574;2023-07-08T00:48:45;95653.06;;;13.18;100.00
27429;BME280;14881;48.092;11.574;2023-07-08T00:51:12;95652.59;;;13.16;100.00
27429;BME280;14881;48.092;11.574;2023-07-08T00:53:39;95652.06;;;13.14;100.00
27429;BME280;14881;48.092;11.574;2023-07-08T00:56:10;95649.91;;;13.11;100.00
27429;BME280;14881;48.092;11.574;2023-07-08T00:58:43;95654.56;;;13.10;100.00
27429;BME280;14881;48.092;11.574;2023-07-08T01:01:12;95654.78;;;13.14;100.00
27429;BME280;14881;48.092;11.574;2023-07-08T01:03:43;95652.84;;;13.14;100.00
27429;BME280;14881;48.092;11.574;2023-07-08T01:06:12;95650.63;;;13.16;100.00
27429;BME280;14881;48.092;11.574;2023-07-08T01:08:39;95652.78;;;13.19;100.00
27429;BME280;14881;48.092;11.574;2023-07-08T01:11:06;95644.00;;;13.22;100.00
27429;BME280;14881;48.092;11.574;2023-07-08T01:13:35;95643.81;;;13.33;100.00
27429;BME280;14881;48.092;11.574;2023-07-08T01:16:04;95642.88;;;13.37;100.00
27429;BME280;14881;48.092;11.574;2023-07-08T01:18:31;95646.00;;;13.44;100.00
27429;BME280;14881;48.092;11.574;2023-07-08T01:21:02;95649.84;;;13.43;100.00
27429;BME280;14881;48.092;11.574;2023-07-08T01:23:32;95658.66;;;13.40;100.00
27429;BME280;14881;48.092;11.574;2023-07-08T01:26:00;95658.13;;;13.38;100.00
27429;BME280;14881;48.092;11.574;2023-07-08T01:28:27;95654.72;;;13.33;100.00
27429;BME280;14881;48.092;11.574;2023-07-08T01:30:57;95663.22;;;13.31;100.00
27429;BME280;14881;48.092;11.574;2023-07-08T01:33:25;95664.81;;;13.32;100.00
27429;BME280;14881;48.092;11.574;2023-07-08T01:35:52;95667.22;;;13.34;100.00
27429;BME280;14881;48.092;11.574;2023-07-08T01:38:22;95661.00;;;13.33;100.00
27429;BME280;14881;48.092;11.574;2023-07-08T01:40:54;95665.13;;;13.31;100.00
27429;BME280;14881;48.092;11.574;2023-07-08T01:43:21;95662.28;;;13.36;100.00
27429;BME280;14881;48.092;11.574;2023-07-08T01:45:49;95662.47;;;13.39;100.00
27429;BME280;14881;48.092;11.574;2023-07-08T01:48:19;95660.88;;;13.38;100.00
27429;BME280;14881;48.092;11.574;2023-07-08T01:50:51;95658.13;;;13.38;100.00
27429;BME280;14881;48.092;11.574;2023-07-08T01:53:28;95652.97;;;13.37;100.00
27429;BME280;14881;48.092;11.574;2023-07-08T01:55:55;95655.19;;;13.35;100.00
27429;BME280;14881;48.092;11.574;2023-07-08T01:58:22;95653.28;;;13.35;100.00
27429;BME280;14881;48.092;11.574;2023-07-08T02:00:48;95662.41;;;13.31;100.00
27429;BME280;14881;48.092;11.574;2023-07-08T02:03:15;95654.59;;;13.24;100.00
27429;BME280;14881;48.092;11.574;2023-07-08T02:05:41;95649.84;;;13.16;100.00
27429;BME280;14881;48.092;11.574;2023-07-08T02:08:07;95653.16;;;13.13;100.00
27429;BME280;14881;48.092;11.574;2023-07-08T02:10:34;95651.53;;;13.12;100.00
27429;BME280;14881;48.092;11.574;2023-07-08T02:13:01;95646.78;;;13.04;100.00
27429;BME280;14881;48.092;11.574;2023-07-08T02:15:27;95646.88;;;12.99;100.00
27429;BME280;14881;48.092;11.574;2023-07-08T02:17:54;95645.16;;;13.03;100.00
27429;BME280;14881;48.092;11.574;2023-07-08T02:20:20;95649.19;;;13.05;100.00
27429;BME280;14881;48.092;11.574;2023-07-08T02:22:46;95651.63;;;13.07;100.00
27429;BME280;14881;48.092;11.574;2023-07-08T02:25:13;95645.75;;;13.00;100.00
27429;BME280;14881;48.092;11.574;2023-07-08T02:27:39;95634.94;;;12.95;100.00
27429;BME280;14881;48.092;11.574;2023-07-08T02:30:07;95646.66;;;12.95;100.00
27429;BME280;14881;48.092;11.574;2023-07-08T02:32:35;95646.38;;;12.97;100.00
27429;BME280;14881;48.092;11.574;2023-07-08T02:35:05;95644.63;;;13.01;100.00
27429;BME280;14881;48.092;11.574;2023-07-08T02:37:31;95649.09;;;12.97;100.00
27429;BME280;14881;48.092;11.574;2023-07-08T02:39:58;95644.03;;;12.90;100.00
27429;BME280;14881;48.092;11.574;2023-07-08T02:42:24;95636.03;;;12.80;100.00
27429;BME280;14881;48.092;11.574;2023-07-08T02:44:50;95641.16;;;12.68;100.00
27429;BME280;14881;48.092;11.574;2023-07-08T02:47:18;95639.00;;;12.65;100.00
27429;BME280;14881;48.092;11.574;2023-07-08T02:49:44;95639.94;;;12.60;100.00
27429;BME280;14881;48.092;11.574;2023-07-08T02:52:11;95650.25;;;12.63;100.00
27429;BME280;14881;48.092;11.574;2023-07-08T02:54:38;95651.69;;;12.74;100.00
27429;BME280;14881;48.092;11.574;2023-07-08T02:57:04;95645.50;;;12.82;100.00
27429;BME280;14881;48.092;11.574;2023-07-08T02:59:31;95645.13;;;12.89;100.00
27429;BME280;14881;48.092;11.574;2023-07-08T03:01:57;95642.91;;;12.91;100.00
27429;BME280;14881;48.092;11.574;2023-07-08T03:04:24;95651.31;;;12.95;100.00
27429;BME280;14881;48.092;11.574;2023-07-08T03:06:50;95647.47;;;12.96;100.00
27429;BME280;14881;48.092;11.574;2023-07-08T03:09:17;95656.78;;;12.95;100.00
27429;BME280;14881;48.092;11.574;2023-07-08T03:11:43;95655.75;;;12.90;100.00
27429;BME280;14881;48.092;11.574;2023-07-08T03:14:10;95649.28;;;12.86;100.00
27429;BME280;14881;48.092;11.574;2023-07-08T03:16:36;95654.72;;;12.86;100.00
27429;BME280;14881;48.092;11.574;2023-07-08T03:19:03;95660.38;;;12.90;100.00
27429;BME280;14881;48.092;11.574;2023-07-08T03:21:31;95659.59;;;12.89;100.00
27429;BME280;14881;48.092;11.574;2023-07-08T03:23:57;95649.34;;;12.81;100.00
27429;BME280;14881;48.092;11.574;2023-07-08T03:26:25;95645.13;;;12.75;100.00
27429;BME280;14881;48.092;11.574;2023-07-08T03:28:53;95643.78;;;12.73;100.00
27429;BME280;14881;48.092;11.574;2023-07-08T03:31:20;95649.25;;;12.73;100.00
27429;BME280;14881;48.092;11.574;2023-07-08T03:33:46;95643.13;;;12.81;100.00
27429;BME280;14881;48.092;11.574;2023-07-08T03:36:14;95643.00;;;12.86;100.00
27429;BME280;14881;48.092;11.574;2023-07-08T03:38:49;95644.31;;;12.88;100.00
27429;BME280;14881;48.092;11.574;2023-07-08T03:41:16;95645.13;;;12.89;100.00
27429;BME280;14881;48.092;11.574;2023-07-08T03:43:43;95649.19;;;12.92;100.00
27429;BME280;14881;48.092;11.574;2023-07-08T03:46:10;95646.66;;;12.95;100.00
27429;BME280;14881;48.092;11.574;2023-07-08T03:48:36;95645.25;;;12.98;100.00
27429;BME280;14881;48.092;11.574;2023-07-08T03:51:03;95641.91;;;13.01;100.00
27429;BME280;14881;48.092;11.574;2023-07-08T03:53:30;95646.56;;;13.00;100.00
27429;BME280;14881;48.092;11.574;2023-07-08T03:55:57;95641.09;;;13.00;100.00
27429;BME280;14881;48.092;11.574;2023-07-08T03:58:23;95645.44;;;13.01;100.00
27429;BME280;14881;48.092;11.574;2023-07-08T04:00:49;95651.72;;;13.02;100.00
27429;BME280;14881;48.092;11.574;2023-07-08T04:03:16;95655.47;;;13.06;100.00
27429;BME280;14881;48.092;11.574;2023-07-08T04:05:42;95649.72;;;13.07;100.00
27429;BME280;14881;48.092;11.574;2023-07-08T04:08:08;95643.06;;;13.13;100.00
27429;BME280;14881;48.092;11.574;2023-07-08T04:10:35;95652.97;;;13.23;100.00
27429;BME280;14881;48.092;11.574;2023-07-08T04:13:02;95659.16;;;13.29;100.00
27429;BME280;14881;48.092;11.574;2023-07-08T04:15:28;95652.47;;;13.35;100.00
27429;BME280;14881;48.092;11.574;2023-07-08T04:17:54;95650.97;;;13.42;100.00
27429;BME280;14881;48.092;11.574;2023-07-08T04:20:23;95646.63;;;13.41;100.00
27429;BME280;14881;48.092;11.574;2023-07-08T04:22:49;95637.63;;;13.41;100.00
27429;BME280;14881;48.092;11.574;2023-07-08T04:25:15;95641.28;;;13.50;100.00
27429;BME280;14881;48.092;11.574;2023-07-08T04:27:42;95640.66;;;13.67;100.00
27429;BME280;14881;48.092;11.574;2023-07-08T04:30:18;95634.03;;;13.81;100.00
27429;BME280;14881;48.092;11.574;2023-07-08T04:32:46;95647.56;;;13.86;100.00
27429;BME280;14881;48.092;11.574;2023-07-08T04:35:12;95650.00;;;13.88;100.00
27429;BME280;14881;48.092;11.574;2023-07-08T04:37:38;95653.69;;;14.06;100.00
27429;BME280;14881;48.092;11.574;2023-07-08T04:40:07;95657.88;;;14.25;100.00
27429;BME280;14881;48.092;11.574;2023-07-08T04:42:39;95654.22;;;14.30;100.00
27429;BME280;14881;48.092;11.574;2023-07-08T04:45:06;95650.16;;;14.41;100.00
27429;BME280;14881;48.092;11.574;2023-07-08T04:47:33;95663.00;;;14.54;100.00
27429;BME280;14881;48.092;11.574;2023-07-08T04:49:59;95661.53;;;14.57;100.00
27429;BME280;14881;48.092;11.574;2023-07-08T04:52:26;95671.75;;;14.65;100.00
27429;BME280;14881;48.092;11.574;2023-07-08T04:54:52;95669.03;;;14.74;100.00
27429;BME280;14881;48.092;11.574;2023-07-08T04:57:18;95683.84;;;14.95;100.00
27429;BME280;14881;48.092;11.574;2023-07-08T04:59:46;95689.72;;;15.11;100.00
27429;BME280;14881;48.092;11.574;2023-07-08T05:02:13;95686.66;;;15.12;100.00
27429;BME280;14881;48.092;11.574;2023-07-08T05:04:40;95689.97;;;15.23;100.00
27429;BME280;14881;48.092;11.574;2023-07-08T05:07:06;95680.84;;;15.36;100.00
27429;BME280;14881;48.092;11.574;2023-07-08T05:09:33;95689.75;;;15.50;100.00
27429;BME280;14881;48.092;11.574;2023-07-08T05:12:01;95688.38;;;15.61;100.00
27429;BME280;14881;48.092;11.574;2023-07-08T05:14:27;95699.88;;;15.81;100.00
27429;BME280;14881;48.092;11.574;2023-07-08T05:16:53;95702.50;;;15.94;100.00
27429;BME280;14881;48.092;11.574;2023-07-08T05:19:20;95700.91;;;16.02;100.00
27429;BME280;14881;48.092;11.574;2023-07-08T05:21:48;95691.56;;;16.03;100.00
27429;BME280;14881;48.092;11.574;2023-07-08T05:24:14;95689.00;;;16.15;100.00
27429;BME280;14881;48.092;11.574;2023-07-08T05:26:41;95695.13;;;16.29;100.00
27429;BME280;14881;48.092;11.574;2023-07-08T05:29:07;95692.91;;;16.40;100.00
27429;BME280;14881;48.092;11.574;2023-07-08T05:31:34;95691.59;;;16.46;100.00
27429;BME280;14881;48.092;11.574;2023-07-08T05:34:03;95689.03;;;16.58;100.00
27429;BME280;14881;48.092;11.574;2023-07-08T05:36:29;95688.25;;;16.75;100.00
27429;BME280;14881;48.092;11.574;2023-07-08T05:38:57;95679.00;;;17.05;100.00
27429;BME280;14881;48.092;11.574;2023-07-08T05:41:23;95678.47;;;17.29;100.00
27429;BME280;14881;48.092;11.574;2023-07-08T05:43:49;95680.00;;;17.48;100.00
27429;BME280;14881;48.092;11.574;2023-07-08T05:46:16;95671.53;;;17.70;100.00
27429;BME280;14881;48.092;11.574;2023-07-08T05:48:42;95675.63;;;17.93;100.00
27429;BME280;14881;48.092;11.574;2023-07-08T05:51:08;95676.06;;;18.25;100.00
27429;BME280;14881;48.092;11.574;2023-07-08T05:53:35;95667.53;;;18.38;100.00
27429;BME280;14881;48.092;11.574;2023-07-08T05:56:02;95657.53;;;18.55;100.00
27429;BME280;14881;48.092;11.574;2023-07-08T05:58:29;95665.25;;;18.70;100.00
27429;BME280;14881;48.092;11.574;2023-07-08T06:00:56;95663.34;;;18.83;100.00
27429;BME280;14881;48.092;11.574;2023-07-08T06:03:23;95666.97;;;19.07;100.00
27429;BME280;14881;48.092;11.574;2023-07-08T06:05:49;95667.47;;;19.22;100.00
27429;BME280;14881;48.092;11.574;2023-07-08T06:08:16;95666.03;;;19.36;100.00
27429;BME280;14881;48.092;11.574;2023-07-08T06:10:43;95665.38;;;19.52;100.00
27429;BME280;14881;48.092;11.574;2023-07-08T06:13:10;95659.66;;;19.69;100.00
27429;BME280;14881;48.092;11.574;2023-07-08T06:15:37;95669.66;;;19.86;100.00
27429;BME280;14881;48.092;11.574;2023-07-08T06:18:03;95666.19;;;20.01;100.00
27429;BME280;14881;48.092;11.574;2023-07-08T06:20:30;95655.16;;;20.13;100.00
27429;BME280;14881;48.092;11.574;2023-07-08T06:22:56;95655.94;;;20.13;100.00
27429;BME280;14881;48.092;11.574;2023-07-08T06:25:22;95668.59;;;20.14;100.00
27429;BME280;14881;48.092;11.574;2023-07-08T06:27:49;95663.19;;;20.18;100.00
27429;BME280;14881;48.092;11.574;2023-07-08T06:30:19;95669.16;;;20.20;100.00
27429;BME280;14881;48.092;11.574;2023-07-08T06:32:45;95665.25;;;20.33;100.00
27429;BME280;14881;48.092;11.574;2023-07-08T06:35:11;95660.16;;;20.47;100.00
27429;BME280;14881;48.092;11.574;2023-07-08T06:37:38;95655.44;;;20.60;100.00
27429;BME280;14881;48.092;11.574;2023-07-08T06:40:05;95665.63;;;20.72;100.00
27429;BME280;14881;48.092;11.574;2023-07-08T06:42:32;95669.19;;;20.72;100.00
27429;BME280;14881;48.092;11.574;2023-07-08T06:44:58;95664.94;;;20.75;100.00
27429;BME280;14881;48.092;11.574;2023-07-08T06:47:25;95658.56;;;20.87;100.00
27429;BME280;14881;48.092;11.574;2023-07-08T06:49:52;95659.91;;;20.93;100.00
27429;BME280;14881;48.092;11.574;2023-07-08T06:52:18;95666.94;;;20.90;100.00
27429;BME280;14881;48.092;11.574;2023-07-08T06:54:44;95669.09;;;20.97;100.00
27429;BME280;14881;48.092;11.574;2023-07-08T06:57:11;95680.91;;;21.09;100.00
27429;BME280;14881;48.092;11.574;2023-07-08T06:59:37;95676.38;;;21.17;100.00
27429;BME280;14881;48.092;11.574;2023-07-08T07:02:04;95686.59;;;21.29;100.00
27429;BME280;14881;48.092;11.574;2023-07-08T07:04:31;95676.88;;;21.35;100.00
27429;BME280;14881;48.092;11.574;2023-07-08T07:06:58;95683.06;;;21.44;100.00
27429;BME280;14881;48.092;11.574;2023-07-08T07:09:24;95678.84;;;21.50;100.00
27429;BME280;14881;48.092;11.574;2023-07-08T07:11:52;95669.78;;;21.65;100.00
27429;BME280;14881;48.092;11.574;2023-07-08T07:14:21;95672.63;;;21.84;100.00
27429;BME280;14881;48.092;11.574;2023-07-08T07:16:50;95672.91;;;21.95;100.00
27429;BME280;14881;48.092;11.574;2023-07-08T07:19:34;95686.03;;;21.98;100.00
27429;BME280;14881;48.092;11.574;2023-07-08T07:22:01;95664.63;;;22.11;100.00
27429;BME280;14881;48.092;11.574;2023-07-08T07:24:27;95665.75;;;22.26;100.00
27429;BME280;14881;48.092;11.574;2023-07-08T07:26:54;95663.75;;;22.42;100.00
27429;BME280;14881;48.092;11.574;2023-07-08T07:29:22;95676.66;;;22.53;100.00
27429;BME280;14881;48.092;11.574;2023-07-08T07:31:48;95677.41;;;22.70;100.00
27429;BME280;14881;48.092;11.574;2023-07-08T07:34:15;95673.38;;;22.83;100.00
27429;BME280;14881;48.092;11.574;2023-07-08T07:36:42;95671.38;;;22.64;100.00
27429;BME280;14881;48.092;11.574;2023-07-08T07:39:08;95678.19;;;22.70;100.00
27429;BME280;14881;48.092;11.574;2023-07-08T07:41:34;95684.38;;;22.79;100.00
27429;BME280;14881;48.092;11.574;2023-07-08T07:44:01;95694.06;;;22.89;100.00
27429;BME280;14881;48.092;11.574;2023-07-08T07:46:27;95702.19;;;22.98;100.00
27429;BME280;14881;48.092;11.574;2023-07-08T07:48:54;95713.34;;;23.01;100.00
27429;BME280;14881;48.092;11.574;2023-07-08T07:51:20;95722.69;;;23.12;100.00
27429;BME280;14881;48.092;11.574;2023-07-08T07:53:47;95724.81;;;23.19;100.00
27429;BME280;14881;48.092;11.574;2023-07-08T07:56:13;95721.97;;;23.15;100.00
27429;BME280;14881;48.092;11.574;2023-07-08T07:58:40;95722.75;;;23.35;100.00
27429;BME280;14881;48.092;11.574;2023-07-08T08:01:06;95726.16;;;23.48;100.00
27429;BME280;14881;48.092;11.574;2023-07-08T08:03:33;95730.41;;;23.61;100.00
27429;BME280;14881;48.092;11.574;2023-07-08T08:05:59;95732.09;;;23.66;100.00
27429;BME280;14881;48.092;11.574;2023-07-08T08:08:26;95735.06;;;23.76;100.00
27429;BME280;14881;48.092;11.574;2023-07-08T08:10:53;95726.88;;;23.83;100.00
27429;BME280;14881;48.092;11.574;2023-07-08T08:13:20;95738.69;;;23.80;100.00
27429;BME280;14881;48.092;11.574;2023-07-08T08:15:46;95741.03;;;23.78;100.00
27429;BME280;14881;48.092;11.574;2023-07-08T08:18:12;95734.03;;;23.84;100.00
27429;BME280;14881;48.092;11.574;2023-07-08T08:20:39;95738.72;;;24.03;100.00
27429;BME280;14881;48.092;11.574;2023-07-08T08:23:06;95743.78;;;24.20;100.00
27429;BME280;14881;48.092;11.574;2023-07-08T08:25:33;95746.69;;;24.27;100.00
27429;BME280;14881;48.092;11.574;2023-07-08T08:28:00;95751.94;;;24.33;100.00
27429;BME280;14881;48.092;11.574;2023-07-08T08:30:26;95754.03;;;24.39;100.00
27429;BME280;14881;48.092;11.574;2023-07-08T08:32:53;95754.47;;;24.41;100.00
27429;BME280;14881;48.092;11.574;2023-07-08T08:35:19;95747.41;;;24.47;100.00
27429;BME280;14881;48.092;11.574;2023-07-08T08:37:45;95749.56;;;24.57;100.00
27429;BME280;14881;48.092;11.574;2023-07-08T08:40:13;95737.66;;;24.34;100.00
27429;BME280;14881;48.092;11.574;2023-07-08T08:42:44;95747.84;;;24.26;100.00
27429;BME280;14881;48.092;11.574;2023-07-08T08:45:17;95757.19;;;24.38;100.00
27429;BME280;14881;48.092;11.574;2023-07-08T08:47:49;95743.19;;;24.57;100.00
27429;BME280;14881;48.092;11.574;2023-07-08T08:50:25;95754.97;;;24.73;100.00
27429;BME280;14881;48.092;11.574;2023-07-08T08:52:55;95754.69;;;24.82;100.00
27429;BME280;14881;48.092;11.574;2023-07-08T08:55:23;95754.59;;;25.01;100.00
27429;BME280;14881;48.092;11.574;2023-07-08T08:57:56;95751.47;;;25.06;100.00
27429;BME280;14881;48.092;11.574;2023-07-08T09:00:35;95747.31;;;24.93;100.00
27429;BME280;14881;48.092;11.574;2023-07-08T09:03:08;95753.34;;;24.98;100.00
27429;BME280;14881;48.092;11.574;2023-07-08T09:05:36;95745.97;;;25.10;100.00
27429;BME280;14881;48.092;11.574;2023-07-08T09:08:08;95752.59;;;25.31;100.00
27429;BME280;14881;48.092;11.574;2023-07-08T09:10:44;95753.13;;;25.41;100.00
27429;BME280;14881;48.092;11.574;2023-07-08T09:13:16;95756.91;;;25.59;96.91
27429;BME280;14881;48.092;11.574;2023-07-08T09:15:47;95755.16;;;25.47;96.90
27429;BME280;14881;48.092;11.574;2023-07-08T09:18:20;95761.22;;;25.53;98.01
27429;BME280;14881;48.092;11.574;2023-07-08T09:20:52;95763.50;;;25.77;100.00
27429;BME280;14881;48.092;11.574;2023-07-08T09:23:23;95759.00;;;26.02;95.70
27429;BME280;14881;48.092;11.574;2023-07-08T09:25:55;95752.94;;;26.34;87.09
27429;BME280;14881;48.092;11.574;2023-07-08T09:28:36;95753.13;;;26.55;86.30
27429;BME280;14881;48.092;11.574;2023-07-08T09:31:06;95763.50;;;26.58;85.96
27429;BME280;14881;48.092;11.574;2023-07-08T09:33:34;95755.44;;;26.50;84.22
27429;BME280;14881;48.092;11.574;2023-07-08T09:36:00;95760.91;;;26.87;86.80
27429;BME280;14881;48.092;11.574;2023-07-08T09:38:33;95758.72;;;27.14;82.91
27429;BME280;14881;48.092;11.574;2023-07-08T09:41:01;95761.88;;;27.09;83.89
27429;BME280;14881;48.092;11.574;2023-07-08T09:43:34;95756.91;;;26.84;81.88
27429;BME280;14881;48.092;11.574;2023-07-08T09:46:02;95753.22;;;26.66;83.76
27429;BME280;14881;48.092;11.574;2023-07-08T09:48:34;95759.28;;;26.79;81.71
27429;BME280;14881;48.092;11.574;2023-07-08T09:51:01;95758.13;;;26.87;80.71
27429;BME280;14881;48.092;11.574;2023-07-08T09:53:28;95761.25;;;26.78;80.60
27429;BME280;14881;48.092;11.574;2023-07-08T09:55:57;95757.34;;;26.90;82.08
27429;BME280;14881;48.092;11.574;2023-07-08T09:58:27;95759.81;;;26.95;81.67
27429;BME280;14881;48.092;11.574;2023-07-08T10:00:57;95766.47;;;26.83;80.94
27429;BME280;14881;48.092;11.574;2023-07-08T10:03:27;95759.50;;;27.11;84.39
27429;BME280;14881;48.092;11.574;2023-07-08T10:05:58;95756.84;;;27.43;74.67
27429;BME280;14881;48.092;11.574;2023-07-08T10:08:30;95765.28;;;27.53;74.78
27429;BME280;14881;48.092;11.574;2023-07-08T10:11:02;95760.00;;;27.37;74.68
27429;BME280;14881;48.092;11.574;2023-07-08T10:13:37;95759.00;;;27.67;77.72
27429;BME280;14881;48.092;11.574;2023-07-08T10:16:12;95761.84;;;28.06;75.71
27429;BME280;14881;48.092;11.574;2023-07-08T10:18:40;95764.72;;;28.24;70.32
27429;BME280;14881;48.092;11.574;2023-07-08T10:21:14;95763.13;;;28.44;72.60
27429;BME280;14881;48.092;11.574;2023-07-08T10:23:50;95771.94;;;28.53;67.99
27429;BME280;14881;48.092;11.574;2023-07-08T10:26:24;95776.31;;;28.33;67.42
27429;BME280;14881;48.092;11.574;2023-07-08T10:29:00;95776.72;;;28.21;68.48
27429;BME280;14881;48.092;11.574;2023-07-08T10:31:34;95779.81;;;27.94;67.43
27429;BME280;14881;48.092;11.574;2023-07-08T10:34:16;95783.03;;;28.07;66.44
27429;BME280;14881;48.092;11.574;2023-07-08T10:36:50;95772.25;;;27.98;66.91
27429;BME280;14881;48.092;11.574;2023-07-08T10:39:39;95765.56;;;28.38;66.84
27429;BME280;14881;48.092;11.574;2023-07-08T10:42:18;95765.16;;;28.86;67.03
27429;BME280;14881;48.092;11.574;2023-07-08T10:45:00;95770.28;;;29.20;62.68
27429;BME280;14881;48.092;11.574;2023-07-08T10:47:41;95776.72;;;28.99;61.60
27429;BME280;14881;48.092;11.574;2023-07-08T10:50:22;95769.13;;;29.06;61.22
27429;BME280;14881;48.092;11.574;2023-07-08T10:52:59;95773.44;;;29.47;59.87
27429;BME280;14881;48.092;11.574;2023-07-08T10:55:35;95754.56;;;29.65;56.65
27429;BME280;14881;48.092;11.574;2023-07-08T10:58:17;95761.25;;;29.89;59.83
27429;BME280;14881;48.092;11.574;2023-07-08T11:00:52;95757.31;;;30.45;56.35
27429;BME280;14881;48.092;11.574;2023-07-08T11:03:50;95757.75;;;30.36;57.67
27429;BME280;14881;48.092;11.574;2023-07-08T11:06:20;95752.97;;;30.33;56.75
27429;BME280;14881;48.092;11.574;2023-07-08T11:08:53;95761.47;;;30.23;56.51
27429;BME280;14881;48.092;11.574;2023-07-08T11:11:30;95755.44;;;30.28;55.64
27429;BME280;14881;48.092;11.574;2023-07-08T11:14:04;95752.09;;;30.47;54.92
27429;BME280;14881;48.092;11.574;2023-07-08T11:16:37;95756.44;;;30.55;53.80
27429;BME280;14881;48.092;11.574;2023-07-08T11:19:11;95753.34;;;30.39;55.21
27429;BME280;14881;48.092;11.574;2023-07-08T11:21:43;95757.50;;;30.17;55.60
27429;BME280;14881;48.092;11.574;2023-07-08T11:24:21;95750.28;;;30.16;55.69
27429;BME280;14881;48.092;11.574;2023-07-08T11:26:52;95750.28;;;30.19;55.34
27429;BME280;14881;48.092;11.574;2023-07-08T11:29:24;95750.28;;;30.19;53.84
27429;BME280;14881;48.092;11.574;2023-07-08T11:31:54;95744.47;;;30.48;54.40
27429;BME280;14881;48.092;11.574;2023-07-08T11:34:22;95748.88;;;30.97;50.68
27429;BME280;14881;48.092;11.574;2023-07-08T11:36:50;95750.19;;;31.26;51.72
27429;BME280;14881;48.092;11.574;2023-07-08T11:39:31;95750.59;;;31.25;49.68
27429;BME280;14881;48.092;11.574;2023-07-08T11:42:17;95748.34;;;31.46;47.95
27429;BME280;14881;48.092;11.574;2023-07-08T11:44:47;95746.97;;;31.62;47.83
27429;BME280;14881;48.092;11.574;2023-07-08T11:47:21;95745.63;;;31.73;46.80
27429;BME280;14881;48.092;11.574;2023-07-08T11:49:49;95739.22;;;31.73;45.53
27429;BME280;14881;48.092;11.574;2023-07-08T11:52:18;95736.78;;;31.75;46.26
27429;BME280;14881;48.092;11.574;2023-07-08T11:54:47;95731.19;;;32.02;46.04
27429;BME280;14881;48.092;11.574;2023-07-08T11:57:18;95722.72;;;31.75;44.35
27429;BME280;14881;48.092;11.574;2023-07-08T12:00:12;95727.28;;;31.65;48.07
27429;BME280;14881;48.092;11.574;2023-07-08T12:02:49;95724.72;;;31.40;47.91
27429;BME280;14881;48.092;11.574;2023-07-08T12:05:16;95731.00;;;31.18;48.76
27429;BME280;14881;48.092;11.574;2023-07-08T12:07:45;95727.69;;;30.89;49.52
27429;BME280;14881;48.092;11.574;2023-07-08T12:10:16;95729.47;;;30.68;48.49
27429;BME280;14881;48.092;11.574;2023-07-08T12:12:44;95725.25;;;30.91;51.12
27429;BME280;14881;48.092;11.574;2023-07-08T12:15:15;95727.28;;;30.87;45.35
27429;BME280;14881;48.092;11.574;2023-07-08T12:17:43;95723.84;;;30.72;46.67
27429;BME280;14881;48.092;11.574;2023-07-08T12:20:19;95726.59;;;30.79;45.50
27429;BME280;14881;48.092;11.574;2023-07-08T12:22:48;95728.50;;;30.86;46.71
27429;BME280;14881;48.092;11.574;2023-07-08T12:25:18;95726.66;;;31.09;47.27
27429;BME280;14881;48.092;11.574;2023-07-08T12:27:46;95728.28;;;31.10;47.08
27429;BME280;14881;48.092;11.574;2023-07-08T12:30:13;95712.00;;;30.95;46.97
27429;BME280;14881;48.092;11.574;2023-07-08T12:32:41;95715.69;;;31.26;46.96
27429;BME280;14881;48.092;11.574;2023-07-08T12:35:18;95719.00;;;31.17;46.38
27429;BME280;14881;48.092;11.574;2023-07-08T12:37:46;95714.50;;;31.23;45.32
27429;BME280;14881;48.092;11.574;2023-07-08T12:40:13;95708.63;;;31.44;50.32
27429;BME280;14881;48.092;11.574;2023-07-08T12:42:40;95700.78;;;31.66;46.05
27429;BME280;14881;48.092;11.574;2023-07-08T12:45:13;95702.44;;;31.57;44.78
27429;BME280;14881;48.092;11.574;2023-07-08T12:47:40;95703.03;;;31.44;45.10
27429;BME280;14881;48.092;11.574;2023-07-08T12:50:08;95700.28;;;31.71;46.12
27429;BME280;14881;48.092;11.574;2023-07-08T12:52:35;95700.59;;;31.77;44.23